RJEO(METAR)
04/28 14:00
RJEO 280500Z 21009KT 9999 FEW012 FEW025 BKNXXX 12/07 Q1003 RMK
A2963=
戻る
トップページへ戻る
IMOC Co,.Ltd.